createdAt,value
2023-07-12T00:01:17.800Z,12.45
2023-07-12T00:03:45.875Z,15.60
2023-07-12T00:06:15.013Z,11.65
2023-07-12T00:08:43.061Z,13.95
2023-07-12T00:11:16.859Z,12.68
2023-07-12T00:13:46.061Z,12.52
2023-07-12T00:16:20.934Z,12.45
2023-07-12T00:18:48.824Z,15.57
2023-07-12T00:21:23.828Z,12.38
2023-07-12T00:23:53.994Z,10.23
2023-07-12T00:26:27.758Z,11.27
2023-07-12T00:29:03.727Z,13.93
2023-07-12T00:31:33.988Z,12.32
2023-07-12T00:34:01.741Z,11.60
2023-07-12T00:36:32.180Z,11.85
2023-07-12T00:39:01.507Z,9.80
2023-07-12T00:41:46.240Z,11.40
2023-07-12T00:44:20.004Z,11.82
2023-07-12T00:46:50.246Z,11.73
2023-07-12T00:49:17.971Z,13.98
2023-07-12T00:51:51.394Z,9.02
2023-07-12T00:54:21.461Z,11.88
2023-07-12T00:56:49.325Z,12.48
2023-07-12T00:59:24.065Z,11.65
2023-07-12T01:02:00.865Z,13.30
2023-07-12T01:04:32.986Z,9.75
2023-07-12T01:07:00.989Z,11.45
2023-07-12T01:09:29.816Z,23.27
2023-07-12T01:11:58.252Z,9.55
2023-07-12T01:14:28.080Z,10.52
2023-07-12T01:16:59.337Z,11.85
2023-07-12T01:19:27.234Z,11.52
2023-07-12T01:21:58.171Z,11.43
2023-07-12T01:24:28.156Z,12.02
2023-07-12T01:27:00.918Z,9.73
2023-07-12T01:29:31.403Z,10.48
2023-07-12T01:31:59.516Z,10.93
2023-07-12T01:34:27.253Z,10.93
2023-07-12T01:36:56.780Z,12.73
2023-07-12T01:39:25.632Z,11.15
2023-07-12T01:41:54.626Z,10.57
2023-07-12T01:44:22.960Z,8.48
2023-07-12T01:46:50.886Z,11.63
2023-07-12T01:49:18.953Z,9.98
2023-07-12T01:51:47.288Z,12.10
2023-07-12T01:54:16.521Z,10.98
2023-07-12T01:56:44.235Z,7.43
2023-07-12T01:59:11.943Z,8.82
2023-07-12T02:01:40.181Z,8.18
2023-07-12T02:04:08.180Z,10.20
2023-07-12T02:06:35.914Z,8.07
2023-07-12T02:09:04.477Z,9.48
2023-07-12T02:11:33.600Z,6.65
2023-07-12T02:14:01.402Z,9.18
2023-07-12T02:16:29.189Z,8.32
2023-07-12T02:18:57.308Z,7.35
2023-07-12T02:21:25.030Z,5.88
2023-07-12T02:23:54.162Z,5.65
2023-07-12T02:26:21.984Z,5.50
2023-07-12T02:28:51.221Z,4.00
2023-07-12T02:31:22.063Z,5.75
2023-07-12T02:33:50.445Z,5.22
2023-07-12T02:36:18.949Z,4.90
2023-07-12T02:38:47.878Z,4.60
2023-07-12T02:41:16.859Z,5.20
2023-07-12T02:43:45.071Z,4.43
2023-07-12T02:46:14.803Z,7.00
2023-07-12T02:48:42.999Z,6.20
2023-07-12T02:51:11.257Z,6.55
2023-07-12T02:53:41.183Z,6.43
2023-07-12T02:56:09.614Z,5.40
2023-07-12T02:58:37.700Z,5.25
2023-07-12T03:01:05.655Z,3.72
2023-07-12T03:03:34.920Z,5.85
2023-07-12T03:06:07.167Z,6.57
2023-07-12T03:08:35.238Z,5.43
2023-07-12T03:11:04.145Z,5.63
2023-07-12T03:13:31.985Z,5.40
2023-07-12T03:16:00.382Z,5.75
2023-07-12T03:18:28.541Z,5.70
2023-07-12T03:21:01.994Z,5.97
2023-07-12T03:23:31.292Z,5.25
2023-07-12T03:26:00.241Z,3.75
2023-07-12T03:28:28.411Z,3.92
2023-07-12T03:31:01.037Z,4.07
2023-07-12T03:33:29.470Z,6.28
2023-07-12T03:35:57.325Z,6.38
2023-07-12T03:38:27.163Z,3.80
2023-07-12T03:40:56.355Z,4.85
2023-07-12T03:43:24.215Z,4.72
2023-07-12T03:45:52.182Z,4.85
2023-07-12T03:48:20.326Z,7.60
2023-07-12T03:50:49.850Z,3.78
2023-07-12T03:53:18.190Z,5.32
2023-07-12T03:55:49.088Z,4.50
2023-07-12T03:58:19.048Z,5.90
2023-07-12T04:00:48.676Z,4.00
2023-07-12T04:03:17.485Z,6.35
2023-07-12T04:05:46.498Z,3.58
2023-07-12T04:08:14.326Z,3.72
2023-07-12T04:10:42.213Z,3.40
2023-07-12T04:13:11.914Z,4.45
2023-07-12T04:15:39.797Z,4.47
2023-07-12T04:18:07.758Z,4.10
2023-07-12T04:20:39.007Z,2.65
2023-07-12T04:23:07.627Z,7.15
2023-07-12T04:25:35.780Z,3.72
2023-07-12T04:28:03.728Z,5.10
2023-07-12T04:30:34.293Z,3.88
2023-07-12T04:33:02.634Z,4.70
2023-07-12T04:35:30.448Z,6.68
2023-07-12T04:37:58.157Z,2.88
2023-07-12T04:40:26.520Z,4.90
2023-07-12T04:42:54.401Z,6.15
2023-07-12T04:45:22.087Z,8.40
2023-07-12T04:47:52.073Z,3.75
2023-07-12T04:50:20.222Z,4.53
2023-07-12T04:52:47.889Z,4.50
2023-07-12T04:55:24.742Z,4.15
2023-07-12T04:57:53.258Z,3.10
2023-07-12T05:00:21.567Z,4.00
2023-07-12T05:02:50.718Z,3.55
2023-07-12T05:05:18.599Z,5.00
2023-07-12T05:07:46.645Z,2.92
2023-07-12T05:10:15.396Z,5.28
2023-07-12T05:12:43.836Z,1.85
2023-07-12T05:15:12.930Z,1.90
2023-07-12T05:17:42.395Z,2.35
2023-07-12T05:20:14.058Z,1.58
2023-07-12T05:22:42.914Z,2.38
2023-07-12T05:25:11.925Z,1.92
2023-07-12T05:27:40.203Z,1.83
2023-07-12T05:30:09.664Z,3.53
2023-07-12T05:32:37.567Z,2.08
2023-07-12T05:35:06.725Z,2.70
2023-07-12T05:37:36.066Z,3.65
2023-07-12T05:40:05.176Z,3.70
2023-07-12T05:42:33.156Z,5.07
2023-07-12T05:45:00.935Z,4.50
2023-07-12T05:47:28.789Z,2.05
2023-07-12T05:49:58.113Z,3.72
2023-07-12T05:52:26.120Z,2.67
2023-07-12T05:54:55.473Z,3.15
2023-07-12T05:57:23.357Z,3.72
2023-07-12T05:59:51.246Z,1.88
2023-07-12T06:02:19.147Z,2.95
2023-07-12T06:04:47.260Z,2.38
2023-07-12T06:07:15.005Z,2.42
2023-07-12T06:09:43.041Z,4.30
2023-07-12T06:12:13.508Z,2.67
2023-07-12T06:14:41.503Z,2.83
2023-07-12T06:17:09.281Z,2.72
2023-07-12T06:19:37.078Z,2.90
2023-07-12T06:22:05.601Z,2.60
2023-07-12T06:24:33.709Z,3.28
2023-07-12T06:27:01.571Z,1.90
2023-07-12T06:29:31.369Z,1.38
2023-07-12T06:31:59.150Z,2.40
2023-07-12T06:34:27.136Z,4.18
2023-07-12T06:36:54.852Z,3.03
2023-07-12T06:39:24.741Z,2.92
2023-07-12T06:41:52.502Z,2.90
2023-07-12T06:44:20.449Z,2.78
2023-07-12T06:46:49.828Z,2.47
2023-07-12T06:49:17.767Z,2.53
2023-07-12T06:51:47.262Z,3.10
2023-07-12T06:54:15.343Z,3.75
2023-07-12T06:56:44.043Z,3.15
2023-07-12T06:59:12.681Z,1.85
2023-07-12T07:01:40.456Z,1.67
2023-07-12T07:04:09.749Z,4.95
2023-07-12T07:06:37.987Z,1.25
2023-07-12T07:09:05.825Z,1.73
2023-07-12T07:11:33.601Z,3.72
2023-07-12T07:14:01.753Z,1.20
2023-07-12T07:16:29.612Z,1.02
2023-07-12T07:18:59.626Z,0.85
2023-07-12T07:21:29.382Z,1.67
2023-07-12T07:23:57.329Z,2.28
2023-07-12T07:26:25.245Z,1.15
2023-07-12T07:28:54.700Z,1.60
2023-07-12T07:31:22.407Z,1.90
2023-07-12T07:33:50.177Z,0.93
2023-07-12T07:36:17.846Z,1.98
2023-07-12T07:38:46.940Z,1.95
2023-07-12T07:41:17.161Z,2.90
2023-07-12T07:43:46.414Z,2.40
2023-07-12T07:46:16.028Z,2.20
2023-07-12T07:48:44.241Z,2.92
2023-07-12T07:51:12.744Z,1.58
2023-07-12T07:53:40.915Z,0.88
2023-07-12T07:56:10.285Z,0.85
2023-07-12T07:58:38.213Z,1.58
2023-07-12T08:01:06.264Z,2.15
2023-07-12T08:03:36.171Z,1.23
2023-07-12T08:06:04.370Z,3.13
2023-07-12T08:08:34.227Z,0.98
2023-07-12T08:11:02.107Z,2.72
2023-07-12T08:13:31.229Z,2.08
2023-07-12T08:15:59.117Z,1.90
2023-07-12T08:18:27.143Z,0.60
2023-07-12T08:20:56.329Z,1.80
2023-07-12T08:23:24.293Z,2.45
2023-07-12T08:25:53.821Z,1.30
2023-07-12T08:28:21.637Z,2.60
2023-07-12T08:30:50.814Z,0.95
2023-07-12T08:33:19.020Z,2.33
2023-07-12T08:35:49.586Z,1.33
2023-07-12T08:38:19.889Z,1.15
2023-07-12T08:40:51.969Z,4.20
2023-07-12T08:43:23.058Z,1.27
2023-07-12T08:45:57.467Z,1.02
2023-07-12T08:48:26.346Z,2.28
2023-07-12T08:50:54.066Z,4.03
2023-07-12T08:53:25.944Z,4.57
2023-07-12T08:55:54.971Z,2.17
2023-07-12T08:58:26.222Z,1.73
2023-07-12T09:01:03.235Z,1.70
2023-07-12T09:03:31.684Z,2.05
2023-07-12T09:06:00.057Z,3.30
2023-07-12T09:08:35.405Z,1.95
2023-07-12T09:11:03.554Z,2.20
2023-07-12T09:13:36.208Z,3.63
2023-07-12T09:16:21.014Z,3.55
2023-07-12T09:18:50.941Z,2.22
2023-07-12T09:21:23.511Z,2.78
2023-07-12T09:23:54.700Z,3.85
2023-07-12T09:26:24.766Z,5.50
2023-07-12T09:28:57.445Z,2.78
2023-07-12T09:31:31.285Z,3.67
2023-07-12T09:34:05.543Z,5.10
2023-07-12T09:36:37.020Z,2.60
2023-07-12T09:39:06.871Z,4.45
2023-07-12T09:41:34.723Z,2.25
2023-07-12T09:44:03.125Z,4.07
2023-07-12T09:46:39.583Z,3.25
2023-07-12T09:49:14.295Z,3.08
2023-07-12T09:51:50.746Z,3.20
2023-07-12T09:54:31.234Z,3.08
2023-07-12T09:57:05.115Z,2.38
2023-07-12T09:59:43.792Z,2.78
2023-07-12T10:02:22.953Z,2.60
2023-07-12T10:04:56.382Z,2.75
2023-07-12T10:07:34.505Z,3.55
2023-07-12T10:10:02.307Z,3.42
2023-07-12T10:12:37.066Z,1.98
2023-07-12T10:15:05.517Z,2.88
2023-07-12T10:17:38.591Z,4.25
2023-07-12T10:20:15.154Z,1.98
2023-07-12T10:22:45.866Z,3.08
2023-07-12T10:25:24.677Z,3.55
2023-07-12T10:28:00.041Z,3.78
2023-07-12T10:30:30.240Z,6.85
2023-07-12T10:33:04.336Z,2.20
2023-07-12T10:35:44.618Z,4.05
2023-07-12T10:38:15.639Z,2.53
2023-07-12T10:40:54.169Z,4.18
2023-07-12T10:43:28.742Z,4.45
2023-07-12T10:46:02.522Z,3.65
2023-07-12T10:48:32.322Z,1.58
2023-07-12T10:51:18.932Z,5.82
2023-07-12T10:53:52.267Z,2.78
2023-07-12T10:56:26.244Z,2.13
2023-07-12T10:58:58.761Z,2.90
2023-07-12T11:01:50.842Z,3.92
2023-07-12T11:04:27.543Z,2.90
2023-07-12T11:06:58.044Z,2.17
2023-07-12T11:09:26.912Z,2.65
2023-07-12T11:12:07.203Z,3.38
2023-07-12T11:14:48.655Z,2.38
2023-07-12T11:17:21.699Z,2.55
2023-07-12T11:20:10.262Z,3.25
2023-07-12T11:22:57.672Z,2.72
2023-07-12T11:25:35.543Z,2.50
2023-07-12T11:28:05.964Z,3.65
2023-07-12T11:30:44.813Z,2.33
2023-07-12T11:33:31.120Z,4.72
2023-07-12T11:36:07.375Z,4.28
2023-07-12T11:38:38.030Z,2.03
2023-07-12T11:41:08.494Z,1.85
2023-07-12T11:43:39.078Z,5.43
2023-07-12T11:46:16.738Z,5.15
2023-07-12T11:48:50.132Z,2.38
2023-07-12T11:51:23.465Z,4.70
2023-07-12T11:53:57.400Z,2.88
2023-07-12T11:56:26.522Z,2.65
2023-07-12T11:58:55.289Z,3.65
2023-07-12T12:01:23.296Z,2.13
2023-07-12T12:03:54.022Z,4.15
2023-07-12T12:06:24.039Z,3.50
2023-07-12T12:08:56.202Z,5.80
2023-07-12T12:11:29.407Z,2.88
2023-07-12T12:13:59.059Z,3.72
2023-07-12T12:16:30.807Z,4.43
2023-07-12T12:19:02.162Z,3.90
2023-07-12T12:21:31.690Z,2.20
2023-07-12T12:24:11.586Z,4.10
2023-07-12T12:26:48.232Z,4.28
2023-07-12T12:29:18.921Z,4.05
2023-07-12T12:31:56.425Z,3.35
2023-07-12T12:34:28.848Z,3.00
2023-07-12T12:37:00.369Z,2.08
2023-07-12T12:39:29.750Z,3.85
2023-07-12T12:42:00.295Z,3.85
2023-07-12T12:44:32.577Z,4.18
2023-07-12T12:47:18.577Z,1.73
2023-07-12T12:55:07.682Z,2.97
2023-07-12T13:18:24.403Z,7.68
2023-07-12T13:20:51.328Z,5.28
2023-07-12T13:23:23.357Z,5.10
2023-07-12T13:25:53.247Z,2.80
2023-07-12T13:28:22.739Z,7.15
2023-07-12T13:30:50.574Z,3.47
2023-07-12T13:33:19.364Z,2.67
2023-07-12T13:45:53.404Z,3.22
2023-07-12T13:48:23.456Z,3.05
2023-07-12T13:50:51.529Z,3.95
2023-07-12T13:53:19.398Z,2.30
2023-07-12T13:55:47.467Z,3.42
2023-07-12T14:03:31.730Z,4.97
2023-07-12T14:06:02.529Z,1.65
2023-07-12T14:11:00.842Z,2.70
2023-07-12T14:13:29.933Z,3.70
2023-07-12T14:15:57.799Z,2.20
2023-07-12T14:18:25.486Z,3.92
2023-07-12T14:20:53.239Z,2.75
2023-07-12T14:23:24.022Z,5.45
2023-07-12T14:25:51.830Z,2.53
2023-07-12T14:28:20.188Z,3.97
2023-07-12T14:31:02.974Z,4.95
2023-07-12T14:33:36.001Z,4.15
2023-07-12T14:36:04.622Z,5.45
2023-07-12T14:38:32.292Z,2.45
2023-07-12T14:41:00.471Z,2.40
2023-07-12T14:43:28.134Z,3.30
2023-07-12T14:45:57.280Z,3.45
2023-07-12T14:48:25.037Z,3.85
2023-07-12T14:50:52.822Z,5.35
2023-07-12T14:53:23.250Z,2.88
2023-07-12T14:55:51.028Z,2.05
2023-07-12T14:58:21.251Z,2.58
2023-07-12T15:00:50.994Z,10.07
2023-07-12T15:03:26.426Z,2.63
2023-07-12T15:05:54.694Z,4.22
2023-07-12T15:08:27.661Z,3.38
2023-07-12T15:10:56.762Z,2.47
2023-07-12T15:13:25.200Z,1.90
2023-07-12T15:15:53.460Z,2.80
2023-07-12T15:18:24.986Z,4.43
2023-07-12T15:20:56.391Z,3.47
2023-07-12T15:23:33.231Z,1.52
2023-07-12T15:26:01.399Z,3.83
2023-07-12T15:28:30.500Z,2.78
2023-07-12T15:30:58.800Z,3.05
2023-07-12T15:33:29.970Z,1.80
2023-07-12T15:36:03.548Z,2.33
2023-07-12T15:38:32.012Z,2.20
2023-07-12T15:41:02.877Z,3.83
2023-07-12T15:43:33.772Z,6.05
2023-07-12T15:46:03.752Z,4.07
2023-07-12T15:48:34.890Z,3.05
2023-07-12T15:51:09.745Z,2.00
2023-07-12T15:53:37.799Z,5.00
2023-07-12T15:56:05.768Z,5.35
2023-07-12T15:58:34.744Z,6.10
2023-07-12T16:01:05.032Z,2.95
2023-07-12T16:03:37.551Z,5.25
2023-07-12T16:06:08.369Z,5.18
2023-07-12T16:08:36.878Z,3.88
2023-07-12T16:11:17.955Z,2.03
2023-07-12T16:13:59.027Z,2.88
2023-07-12T16:16:30.248Z,6.07
2023-07-12T16:18:59.717Z,3.13
2023-07-12T16:21:30.799Z,2.25
2023-07-12T16:24:00.007Z,2.10
2023-07-12T16:26:30.715Z,2.45
2023-07-12T16:28:59.944Z,4.15
2023-07-12T16:31:33.480Z,2.22
2023-07-12T16:34:05.134Z,5.55
2023-07-12T16:36:33.465Z,3.78
2023-07-12T16:39:01.488Z,2.22
2023-07-12T16:41:31.340Z,3.42
2023-07-12T16:44:00.913Z,1.55
2023-07-12T16:46:30.639Z,1.88
2023-07-12T16:48:59.571Z,3.72
2023-07-12T16:51:31.729Z,1.83
2023-07-12T16:53:59.708Z,3.70
2023-07-12T16:56:28.735Z,1.95
2023-07-12T16:58:57.082Z,2.65
2023-07-12T17:01:28.234Z,2.38
2023-07-12T17:03:58.261Z,3.67
2023-07-12T17:06:28.347Z,2.35
2023-07-12T17:08:57.587Z,3.08
2023-07-12T17:11:28.280Z,2.15
2023-07-12T17:13:56.447Z,2.20
2023-07-12T17:16:24.408Z,4.10
2023-07-12T17:18:52.946Z,5.13
2023-07-12T17:21:21.687Z,2.78
2023-07-12T17:23:51.892Z,3.10
2023-07-12T17:26:21.793Z,4.10
2023-07-12T17:28:50.202Z,3.70
2023-07-12T17:31:23.090Z,2.00
2023-07-12T17:33:50.917Z,3.75
2023-07-12T17:36:22.095Z,3.78
2023-07-12T17:38:56.965Z,5.65
2023-07-12T17:41:27.816Z,2.67
2023-07-12T17:43:55.914Z,3.15
2023-07-12T17:46:24.045Z,2.78
2023-07-12T17:48:53.284Z,4.20
2023-07-12T17:51:23.688Z,3.97
2023-07-12T17:53:53.904Z,5.68
2023-07-12T17:56:23.234Z,4.82
2023-07-12T17:58:51.157Z,6.60
2023-07-12T18:01:21.160Z,4.95
2023-07-12T18:03:51.328Z,7.53
2023-07-12T18:06:22.108Z,6.13
2023-07-12T18:08:50.698Z,5.18
2023-07-12T18:11:27.438Z,4.30
2023-07-12T18:13:55.853Z,10.30
2023-07-12T18:16:24.574Z,5.35
2023-07-12T18:18:53.294Z,5.28
2023-07-12T18:21:27.266Z,2.97
2023-07-12T18:23:57.223Z,4.50
2023-07-12T18:26:27.603Z,3.03
2023-07-12T18:28:56.569Z,6.03
2023-07-12T18:31:27.144Z,5.05
2023-07-12T18:33:55.473Z,4.90
2023-07-12T18:36:23.394Z,4.35
2023-07-12T18:38:53.333Z,8.43
2023-07-12T18:41:24.668Z,3.60
2023-07-12T18:43:54.717Z,4.63
2023-07-12T18:46:24.704Z,5.20
2023-07-12T18:48:53.194Z,5.53
2023-07-12T18:51:24.492Z,4.95
2023-07-12T18:53:53.430Z,4.10
2023-07-12T18:56:25.144Z,5.45
2023-07-12T18:58:54.716Z,6.47
2023-07-12T19:01:26.870Z,4.88
2023-07-12T19:03:54.960Z,4.20
2023-07-12T19:06:25.518Z,5.78
2023-07-12T19:08:53.532Z,3.95
2023-07-12T19:11:25.553Z,8.52
2023-07-12T19:13:55.000Z,3.85
2023-07-12T19:16:23.115Z,5.25
2023-07-12T19:18:51.709Z,6.78
2023-07-12T19:21:25.065Z,4.40
2023-07-12T19:23:54.569Z,3.60
2023-07-12T19:26:23.483Z,5.32
2023-07-12T19:28:53.590Z,3.45
2023-07-12T19:31:25.003Z,3.55
2023-07-12T19:33:57.628Z,4.65
2023-07-12T19:36:27.165Z,5.85
2023-07-12T19:38:55.224Z,7.25
2023-07-12T19:41:24.360Z,6.03
2023-07-12T19:43:52.464Z,2.90
2023-07-12T19:46:21.543Z,6.00
2023-07-12T19:48:51.042Z,4.13
2023-07-12T19:51:27.377Z,3.33
2023-07-12T19:53:57.535Z,4.70
2023-07-12T19:56:26.649Z,4.40
2023-07-12T19:58:58.374Z,4.55
2023-07-12T20:01:27.698Z,4.28
2023-07-12T20:03:58.542Z,4.95
2023-07-12T20:06:27.940Z,2.60
2023-07-12T20:08:56.737Z,5.05
2023-07-12T20:11:25.676Z,2.45
2023-07-12T20:13:54.763Z,3.85
2023-07-12T20:16:25.004Z,5.82
2023-07-12T20:18:54.892Z,4.75
2023-07-12T20:21:24.610Z,4.13
2023-07-12T20:23:52.461Z,4.75
2023-07-12T20:26:20.617Z,9.15
2023-07-12T20:28:48.640Z,3.42
2023-07-12T20:31:18.881Z,4.35
2023-07-12T20:33:47.566Z,4.30
2023-07-12T20:36:16.716Z,6.20
2023-07-12T20:38:46.112Z,2.97
2023-07-12T20:41:14.400Z,4.20
2023-07-12T20:43:42.529Z,4.63
2023-07-12T20:46:12.318Z,4.07
2023-07-12T20:48:41.314Z,3.00
2023-07-12T20:51:12.572Z,3.03
2023-07-12T20:53:44.776Z,2.70
2023-07-12T20:56:16.219Z,3.63
2023-07-12T20:58:44.462Z,2.30
2023-07-12T21:01:14.675Z,1.92
2023-07-12T21:03:42.743Z,3.67
2023-07-12T21:06:11.614Z,3.08
2023-07-12T21:08:41.213Z,2.55
2023-07-12T21:11:10.564Z,2.90
2023-07-12T21:13:40.472Z,2.97
2023-07-12T21:16:11.216Z,2.63
2023-07-12T21:18:40.217Z,8.02
2023-07-12T21:21:12.451Z,2.83
2023-07-12T21:23:41.728Z,5.30
2023-07-12T21:26:10.612Z,4.57
2023-07-12T21:28:40.252Z,6.15
2023-07-12T21:31:10.086Z,4.40
2023-07-12T21:33:38.237Z,3.97
2023-07-12T21:36:07.394Z,2.90
2023-07-12T21:38:35.702Z,3.40
2023-07-12T21:41:05.270Z,2.97
2023-07-12T21:43:33.404Z,2.83
2023-07-12T21:46:02.966Z,3.50
2023-07-12T21:48:31.739Z,4.40
2023-07-12T21:51:00.233Z,2.92
2023-07-12T21:53:28.340Z,4.35
2023-07-12T21:55:56.578Z,2.65
2023-07-12T21:58:24.921Z,3.65
2023-07-12T22:00:52.814Z,2.47
2023-07-12T22:03:22.578Z,3.95
2023-07-12T22:05:50.615Z,3.78
2023-07-12T22:08:18.664Z,4.05
2023-07-12T22:10:47.186Z,3.22
2023-07-12T22:13:15.155Z,2.10
2023-07-12T22:15:43.362Z,4.10
2023-07-12T22:18:11.537Z,2.13
2023-07-12T22:20:40.880Z,2.22
2023-07-12T22:23:09.986Z,2.33
2023-07-12T22:25:39.064Z,4.20
2023-07-12T22:28:07.837Z,2.58
2023-07-12T22:30:38.262Z,3.72
2023-07-12T22:33:07.139Z,3.15
2023-07-12T22:35:36.347Z,6.30
2023-07-12T22:38:08.903Z,4.28
2023-07-12T22:40:37.781Z,3.03
2023-07-12T22:43:06.138Z,2.75
2023-07-12T22:45:34.477Z,3.03
2023-07-12T22:48:02.751Z,3.58
2023-07-12T22:50:31.757Z,3.75
2023-07-12T22:53:02.773Z,2.25
2023-07-12T22:55:33.089Z,4.53
2023-07-12T22:58:04.607Z,2.97
2023-07-12T23:00:34.330Z,2.58
2023-07-12T23:03:02.473Z,4.05
2023-07-12T23:05:32.599Z,4.32
2023-07-12T23:08:00.610Z,3.15
2023-07-12T23:10:28.853Z,6.38
2023-07-12T23:12:59.369Z,2.65
2023-07-12T23:15:27.383Z,6.32
2023-07-12T23:17:56.580Z,5.70
2023-07-12T23:20:26.058Z,7.45
2023-07-12T23:22:54.719Z,2.95
2023-07-12T23:25:26.535Z,3.40
2023-07-12T23:27:55.241Z,3.78
2023-07-12T23:30:25.314Z,5.72
2023-07-12T23:32:53.717Z,4.93
2023-07-12T23:35:21.624Z,2.83
2023-07-12T23:37:49.531Z,5.32
2023-07-12T23:40:17.606Z,4.88
2023-07-12T23:42:45.677Z,2.50
2023-07-12T23:45:13.486Z,4.03
2023-07-12T23:47:42.675Z,3.45
2023-07-12T23:50:11.773Z,4.85
2023-07-12T23:52:40.666Z,4.15
2023-07-12T23:55:08.844Z,3.10
2023-07-12T23:57:36.707Z,9.95
